Time;durP1;ratioP1;P1;durP2;ratioP2;P2;SDS_P1;SDS_P2;PMS_P1;PMS_P2;Temp;Humidity;BMP_temperature;BMP_pressure;BME280_temperature;BME280_humidity;BME280_pressure;Samples;Min_cycle;Max_cycle;Signal;HPM_P1;HPM_P2
2022/11/23 18:21:53;;;;;;;59.43;28.07;;;1.40;99.90;;;;;;4992185;28;20357;-71
2022/11/23 18:24:42;;;;;;;59.23;28.40;;;1.40;99.90;;;;;;4967780;28;20231;-72
2022/11/23 18:27:30;;;;;;;55.60;27.57;;;1.40;99.90;;;;;;4982543;28;20334;-73
2022/11/23 18:30:19;;;;;;;60.50;28.40;;;1.50;99.90;;;;;;4970849;28;20326;-72
2022/11/23 18:33:08;;;;;;;54.10;27.83;;;1.40;99.90;;;;;;4971596;28;20229;-73
2022/11/23 18:35:56;;;;;;;56.30;27.77;;;1.30;99.90;;;;;;4978480;28;20222;-72
2022/11/23 18:38:54;;;;;;;57.53;28.37;;;1.20;99.90;;;;;;4967532;28;20219;-72
2022/11/23 18:41:42;;;;;;;58.37;27.37;;;1.00;99.90;;;;;;4968035;28;20230;-72
2022/11/23 18:44:31;;;;;;;55.87;29.77;;;1.10;99.90;;;;;;4968239;28;20307;-72
2022/11/23 18:47:19;;;;;;;55.13;29.50;;;1.00;99.90;;;;;;4973346;28;20232;-72
2022/11/23 18:50:08;;;;;;;55.47;27.63;;;1.20;99.90;;;;;;4969024;28;20230;-72
2022/11/23 18:52:57;;;;;;;56.83;28.80;;;0.90;99.90;;;;;;4979954;28;21099;-74
2022/11/23 18:55:47;;;;;;;56.47;29.13;;;1.00;99.90;;;;;;4979219;28;20238;-72
2022/11/23 18:58:37;;;;;;;54.83;28.97;;;1.10;99.90;;;;;;4972661;28;20227;-73
2022/11/23 19:01:28;;;;;;;59.13;30.67;;;1.40;99.90;;;;;;4966478;28;20314;-72
2022/11/23 19:04:17;;;;;;;62.13;29.77;;;1.50;99.90;;;;;;4980164;28;20228;-73
2022/11/23 19:07:06;;;;;;;58.93;29.07;;;1.10;99.90;;;;;;4979207;28;20234;-73
2022/11/23 19:09:55;;;;;;;60.20;28.87;;;1.30;99.90;;;;;;4974239;28;20227;-72
2022/11/23 19:12:45;;;;;;;58.83;29.70;;;1.10;99.90;;;;;;4967652;28;20228;-73
2022/11/23 19:15:34;;;;;;;55.20;28.07;;;1.30;99.90;;;;;;4970334;28;20262;-73
2022/11/23 19:18:22;;;;;;;58.73;29.33;;;1.20;99.90;;;;;;4964273;28;20231;-73
2022/11/23 19:21:12;;;;;;;53.63;27.93;;;1.20;99.90;;;;;;4981088;28;20304;-72
2022/11/23 19:24:02;;;;;;;59.67;28.87;;;1.30;99.90;;;;;;4966582;28;20220;-73
2022/11/23 19:26:51;;;;;;;55.63;27.67;;;1.50;99.90;;;;;;4979137;28;20228;-74
2022/11/23 19:29:41;;;;;;;58.40;28.17;;;1.20;99.90;;;;;;4968099;28;20224;-73
2022/11/23 19:32:30;;;;;;;62.80;28.73;;;1.40;99.90;;;;;;4960882;28;20253;-74
2022/11/23 19:35:18;;;;;;;59.80;28.10;;;1.30;99.90;;;;;;4952596;28;20346;-74
2022/11/23 19:38:09;;;;;;;61.33;29.03;;;1.40;99.90;;;;;;4957694;28;20404;-73
2022/11/23 19:40:58;;;;;;;59.60;28.90;;;1.30;99.90;;;;;;4953129;28;20263;-73
2022/11/23 19:43:47;;;;;;;58.03;27.07;;;1.20;99.90;;;;;;4951600;28;20237;-72
2022/11/23 19:46:37;;;;;;;62.40;29.60;;;1.10;99.90;;;;;;4953472;28;20317;-73
2022/11/23 19:49:25;;;;;;;62.37;29.13;;;0.80;99.90;;;;;;4954642;28;20237;-71
2022/11/23 19:52:14;;;;;;;58.73;27.33;;;0.90;99.90;;;;;;4951536;28;20240;-73
2022/11/23 19:55:04;;;;;;;58.50;29.87;;;0.90;99.90;;;;;;4953853;28;20248;-72
2022/11/23 19:57:53;;;;;;;63.60;30.33;;;0.90;99.90;;;;;;4965133;28;21073;-72
2022/11/23 20:00:44;;;;;;;62.67;28.23;;;1.00;99.90;;;;;;4953129;28;20600;-72
2022/11/23 20:03:36;;;;;;;63.43;28.57;;;1.20;99.90;;;;;;4956446;28;20269;-72
2022/11/23 20:06:27;;;;;;;57.77;26.87;;;1.30;99.90;;;;;;4966775;28;20243;-72
2022/11/23 20:09:18;;;;;;;62.20;29.60;;;1.10;99.90;;;;;;4955310;28;20231;-72
2022/11/23 20:12:06;;;;;;;57.73;28.47;;;0.90;99.90;;;;;;4948777;28;20232;-72
2022/11/23 20:14:55;;;;;;;67.00;31.77;;;1.10;99.90;;;;;;4963913;28;20228;-74
2022/11/23 20:17:45;;;;;;;58.70;29.00;;;1.30;99.90;;;;;;4953531;28;20236;-73
2022/11/23 20:20:40;;;;;;;65.37;30.07;;;1.40;99.90;;;;;;4951337;28;20265;-73
2022/11/23 20:23:29;;;;;;;64.40;31.40;;;1.20;99.90;;;;;;4961073;28;20815;-73
2022/11/23 20:26:18;;;;;;;64.40;30.60;;;1.20;99.90;;;;;;4951544;28;20291;-73
2022/11/23 20:29:08;;;;;;;70.47;30.60;;;1.40;99.90;;;;;;4952322;28;20307;-73
2022/11/23 20:31:56;;;;;;;66.80;31.73;;;1.30;99.90;;;;;;4967367;28;21068;-71
2022/11/23 20:34:45;;;;;;;61.23;29.97;;;1.40;99.90;;;;;;4952659;28;20788;-73
2022/11/23 20:37:36;;;;;;;62.37;28.83;;;1.10;99.90;;;;;;4954267;28;20343;-73
2022/11/23 20:40:24;;;;;;;54.60;28.10;;;1.10;99.90;;;;;;4962265;28;20940;-74
2022/11/23 20:43:13;;;;;;;54.43;28.03;;;0.90;99.90;;;;;;4951960;28;20230;-74
2022/11/23 20:46:02;;;;;;;62.77;30.00;;;1.10;99.90;;;;;;4952177;28;20237;-73
2022/11/23 20:48:52;;;;;;;59.60;28.00;;;1.30;99.90;;;;;;4952817;28;20231;-74
2022/11/23 20:51:40;;;;;;;55.03;26.70;;;1.30;99.90;;;;;;4952708;28;20254;-74
2022/11/23 20:54:31;;;;;;;57.13;28.53;;;1.20;99.90;;;;;;4954771;28;20266;-74
2022/11/23 20:57:20;;;;;;;57.63;28.23;;;1.10;99.90;;;;;;4952787;28;20425;-74
2022/11/23 21:00:10;;;;;;;50.97;26.37;;;1.00;99.90;;;;;;4954133;28;20224;-74
2022/11/23 21:02:59;;;;;;;51.17;26.50;;;0.90;99.90;;;;;;4980392;28;20272;-73
2022/11/23 21:05:48;;;;;;;48.73;24.80;;;1.10;99.90;;;;;;4952146;28;20374;-74
2022/11/23 21:08:40;;;;;;;54.00;26.83;;;0.90;99.90;;;;;;4965774;28;20256;-73
2022/11/23 21:14:36;;;;;;;57.23;29.00;;;1.20;99.90;;;;;;4966869;28;20256;-74
2022/11/23 21:17:25;;;;;;;53.60;26.40;;;1.00;99.90;;;;;;4953916;28;20244;-72
2022/11/23 21:20:14;;;;;;;56.87;26.90;;;0.50;99.90;;;;;;4961717;28;20235;-75
2022/11/23 21:23:03;;;;;;;49.03;25.30;;;0.70;99.90;;;;;;4953556;28;20235;-75
2022/11/23 21:25:52;;;;;;;50.63;25.60;;;0.90;99.90;;;;;;4955005;28;20229;-74
2022/11/23 21:28:42;;;;;;;53.77;26.47;;;0.60;99.90;;;;;;4950209;28;20228;-75
2022/11/23 21:31:31;;;;;;;49.30;25.00;;;0.60;99.90;;;;;;4951928;28;20356;-74
2022/11/23 21:34:21;;;;;;;55.33;26.10;;;0.70;99.90;;;;;;4949340;28;20881;-73
2022/11/23 21:37:11;;;;;;;49.50;24.60;;;0.70;99.90;;;;;;4951089;28;20255;-74
2022/11/23 21:39:59;;;;;;;52.70;25.20;;;0.60;99.90;;;;;;4948818;28;20224;-75
2022/11/23 21:42:48;;;;;;;52.73;26.20;;;0.60;99.90;;;;;;4965398;28;20854;-74
2022/11/23 21:45:38;;;;;;;52.73;26.73;;;0.80;99.90;;;;;;4945733;28;20348;-75
2022/11/23 21:48:27;;;;;;;46.93;24.53;;;0.70;99.90;;;;;;4950776;28;20231;-74
2022/11/23 21:51:16;;;;;;;49.83;24.80;;;0.70;99.90;;;;;;4949231;28;20247;-75
2022/11/23 21:54:06;;;;;;;48.60;24.60;;;0.70;99.90;;;;;;4950321;28;20242;-75
2022/11/23 21:56:55;;;;;;;50.23;24.40;;;0.70;99.90;;;;;;4950433;28;20248;-75
2022/11/23 21:59:44;;;;;;;50.83;24.37;;;0.60;99.90;;;;;;4980221;28;20233;-73
2022/11/23 22:02:33;;;;;;;46.73;23.93;;;0.70;99.90;;;;;;4948214;28;20279;-74
2022/11/23 22:05:22;;;;;;;49.93;23.90;;;0.70;99.90;;;;;;4948408;28;21090;-74
2022/11/23 22:08:11;;;;;;;47.60;23.23;;;0.70;99.90;;;;;;4952556;28;20221;-74
2022/11/23 22:11:19;;;;;;;44.73;22.00;;;0.70;99.90;;;;;;4951032;28;20760;-72
2022/11/23 22:14:10;;;;;;;46.73;22.60;;;0.50;99.90;;;;;;4950271;28;20753;-74
2022/11/23 22:16:59;;;;;;;47.70;23.60;;;0.70;99.90;;;;;;4952410;28;20277;-74
2022/11/23 22:19:50;;;;;;;47.70;23.37;;;0.50;99.90;;;;;;4947692;28;20237;-74
2022/11/23 22:22:39;;;;;;;47.60;23.87;;;0.50;99.90;;;;;;4948661;28;20231;-73
2022/11/23 22:25:27;;;;;;;53.57;24.50;;;0.80;99.90;;;;;;4950967;28;20611;-73
2022/11/23 22:28:17;;;;;;;49.10;23.87;;;0.90;99.90;;;;;;4953012;28;20308;-75
2022/11/23 22:31:06;;;;;;;46.47;22.70;;;0.70;99.90;;;;;;4951210;28;20268;-75
2022/11/23 22:33:55;;;;;;;49.63;23.97;;;1.00;99.90;;;;;;4949648;28;20238;-71
2022/11/23 22:36:49;;;;;;;50.63;23.97;;;0.70;99.90;;;;;;4945258;28;20236;-74
2022/11/23 22:39:38;;;;;;;47.27;24.33;;;0.60;99.90;;;;;;4951514;28;20239;-72
2022/11/23 22:42:26;;;;;;;44.97;21.30;;;0.60;99.90;;;;;;4950306;28;20232;-72
2022/11/23 22:45:15;;;;;;;47.00;22.60;;;0.50;99.90;;;;;;4945912;28;20238;-74
2022/11/23 22:48:04;;;;;;;48.60;23.50;;;0.40;99.90;;;;;;4950604;28;20238;-74
2022/11/23 22:50:56;;;;;;;50.73;23.73;;;0.50;99.90;;;;;;4961865;28;20326;-74
2022/11/23 22:53:47;;;;;;;44.43;21.83;;;0.50;99.90;;;;;;4953943;28;20228;-75
2022/11/23 22:56:37;;;;;;;45.57;21.93;;;0.30;99.90;;;;;;4951034;28;20889;-74
2022/11/23 22:59:27;;;;;;;44.57;21.77;;;0.30;99.90;;;;;;4955818;28;20231;-74
2022/11/23 23:02:15;;;;;;;45.17;21.73;;;0.30;99.90;;;;;;4952520;28;20836;-73
2022/11/23 23:05:05;;;;;;;43.97;21.63;;;0.60;99.90;;;;;;4966719;28;20630;-73
2022/11/23 23:07:55;;;;;;;43.93;22.40;;;0.60;99.90;;;;;;4955115;28;20742;-74
2022/11/23 23:10:45;;;;;;;42.10;20.60;;;0.50;99.90;;;;;;4956538;28;20236;-74
2022/11/23 23:13:34;;;;;;;43.20;21.20;;;0.40;99.90;;;;;;4955499;28;21069;-75
2022/11/23 23:16:23;;;;;;;40.20;21.20;;;0.40;99.90;;;;;;4957443;28;20234;-75
2022/11/23 23:19:12;;;;;;;38.63;20.27;;;0.40;99.90;;;;;;4955227;28;20230;-76
2022/11/23 23:22:01;;;;;;;40.73;20.87;;;0.70;99.90;;;;;;4955464;28;20238;-74
2022/11/23 23:24:50;;;;;;;43.70;21.37;;;0.70;99.90;;;;;;4955727;28;20224;-75
2022/11/23 23:27:40;;;;;;;42.30;22.40;;;0.60;99.90;;;;;;4964133;28;20231;-76
2022/11/23 23:30:28;;;;;;;43.37;20.97;;;0.60;99.90;;;;;;4953703;28;20219;-75
2022/11/23 23:33:17;;;;;;;43.23;20.60;;;0.60;99.90;;;;;;4968166;28;20227;-75
2022/11/23 23:36:07;;;;;;;45.27;20.80;;;0.60;99.90;;;;;;4953103;28;20899;-75
2022/11/23 23:38:57;;;;;;;42.63;21.07;;;0.50;99.90;;;;;;4956135;28;20226;-75
2022/11/23 23:41:46;;;;;;;45.80;22.60;;;0.50;99.90;;;;;;4956770;28;21193;-76
2022/11/23 23:44:35;;;;;;;50.90;23.40;;;0.70;99.90;;;;;;4953509;28;20709;-76
2022/11/23 23:47:24;;;;;;;42.83;21.60;;;0.40;99.90;;;;;;4957946;28;20832;-74
2022/11/23 23:50:13;;;;;;;47.90;22.63;;;0.70;99.90;;;;;;4966962;28;20231;-75
2022/11/23 23:53:01;;;;;;;43.73;20.30;;;0.80;99.90;;;;;;4965649;28;20227;-76
2022/11/23 23:55:57;;;;;;;43.97;21.27;;;0.60;99.90;;;;;;4954104;28;20216;-81
